sensor_id;sensor_type;location;lat;lon;timestamp;P1;durP1;ratioP1;P2;durP2;ratioP2
46022;SDS011;31756;47.936;16.224;2022-12-29T00:02:14;9.80;;;5.93;;
46022;SDS011;31756;47.936;16.224;2022-12-29T00:04:41;10.70;;;6.67;;
46022;SDS011;31756;47.936;16.224;2022-12-29T00:07:06;10.23;;;6.30;;
46022;SDS011;31756;47.936;16.224;2022-12-29T00:09:33;10.10;;;5.90;;
46022;SDS011;31756;47.936;16.224;2022-12-29T00:11:59;13.10;;;6.70;;
46022;SDS011;31756;47.936;16.224;2022-12-29T00:14:27;13.57;;;6.83;;
46022;SDS011;31756;47.936;16.224;2022-12-29T00:17:11;17.23;;;8.40;;
46022;SDS011;31756;47.936;16.224;2022-12-29T00:19:38;14.37;;;8.00;;
46022;SDS011;31756;47.936;16.224;2022-12-29T00:22:23;14.20;;;6.70;;
46022;SDS011;31756;47.936;16.224;2022-12-29T00:25:08;19.42;;;7.43;;
46022;SDS011;31756;47.936;16.224;2022-12-29T00:27:55;12.33;;;7.13;;
46022;SDS011;31756;47.936;16.224;2022-12-29T00:30:39;12.30;;;7.37;;
46022;SDS011;31756;47.936;16.224;2022-12-29T00:33:28;14.57;;;8.10;;
46022;SDS011;31756;47.936;16.224;2022-12-29T00:36:21;12.27;;;6.70;;
46022;SDS011;31756;47.936;16.224;2022-12-29T00:38:55;12.50;;;6.17;;
46022;SDS011;31756;47.936;16.224;2022-12-29T00:41:49;12.13;;;6.13;;
46022;SDS011;31756;47.936;16.224;2022-12-29T00:44:33;11.23;;;6.10;;
46022;SDS011;31756;47.936;16.224;2022-12-29T00:47:00;19.27;;;10.20;;
46022;SDS011;31756;47.936;16.224;2022-12-29T00:49:28;37.80;;;19.13;;
46022;SDS011;31756;47.936;16.224;2022-12-29T00:54:31;16.53;;;8.40;;
46022;SDS011;31756;47.936;16.224;2022-12-29T00:56:58;14.60;;;8.00;;
46022;SDS011;31756;47.936;16.224;2022-12-29T00:59:25;10.40;;;6.70;;
46022;SDS011;31756;47.936;16.224;2022-12-29T01:01:51;11.67;;;6.83;;
46022;SDS011;31756;47.936;16.224;2022-12-29T01:04:18;11.80;;;5.47;;
46022;SDS011;31756;47.936;16.224;2022-12-29T01:06:45;9.40;;;6.60;;
46022;SDS011;31756;47.936;16.224;2022-12-29T01:09:11;13.13;;;5.73;;
46022;SDS011;31756;47.936;16.224;2022-12-29T01:11:56;14.25;;;7.20;;
46022;SDS011;31756;47.936;16.224;2022-12-29T01:14:21;15.40;;;7.10;;
46022;SDS011;31756;47.936;16.224;2022-12-29T01:16:47;18.60;;;8.67;;
46022;SDS011;31756;47.936;16.224;2022-12-29T01:19:15;8.90;;;5.43;;
46022;SDS011;31756;47.936;16.224;2022-12-29T01:21:42;12.37;;;6.43;;
46022;SDS011;31756;47.936;16.224;2022-12-29T01:24:08;10.00;;;6.53;;
46022;SDS011;31756;47.936;16.224;2022-12-29T01:26:34;13.93;;;8.20;;
46022;SDS011;31756;47.936;16.224;2022-12-29T01:29:00;11.83;;;8.00;;
46022;SDS011;31756;47.936;16.224;2022-12-29T01:31:25;13.37;;;7.17;;
46022;SDS011;31756;47.936;16.224;2022-12-29T01:33:52;14.07;;;8.97;;
46022;SDS011;31756;47.936;16.224;2022-12-29T01:36:18;7.97;;;5.40;;
46022;SDS011;31756;47.936;16.224;2022-12-29T01:38:44;7.17;;;4.77;;
46022;SDS011;31756;47.936;16.224;2022-12-29T01:41:14;8.50;;;4.73;;
46022;SDS011;31756;47.936;16.224;2022-12-29T01:43:48;8.17;;;5.63;;
46022;SDS011;31756;47.936;16.224;2022-12-29T01:48:50;8.90;;;4.07;;
46022;SDS011;31756;47.936;16.224;2022-12-29T01:51:19;7.63;;;5.20;;
46022;SDS011;31756;47.936;16.224;2022-12-29T01:53:48;6.10;;;4.20;;
46022;SDS011;31756;47.936;16.224;2022-12-29T01:56:15;8.20;;;4.30;;
46022;SDS011;31756;47.936;16.224;2022-12-29T01:58:46;9.83;;;4.90;;
46022;SDS011;31756;47.936;16.224;2022-12-29T02:01:15;9.10;;;4.60;;
46022;SDS011;31756;47.936;16.224;2022-12-29T02:03:44;10.40;;;5.07;;
46022;SDS011;31756;47.936;16.224;2022-12-29T02:06:12;6.57;;;4.73;;
46022;SDS011;31756;47.936;16.224;2022-12-29T02:08:43;9.27;;;4.20;;
46022;SDS011;31756;47.936;16.224;2022-12-29T02:11:11;8.37;;;4.23;;
46022;SDS011;31756;47.936;16.224;2022-12-29T02:13:38;6.80;;;4.57;;
46022;SDS011;31756;47.936;16.224;2022-12-29T02:16:16;7.73;;;5.27;;
46022;SDS011;31756;47.936;16.224;2022-12-29T02:30:06;11.60;;;5.03;;
46022;SDS011;31756;47.936;16.224;2022-12-29T02:44:32;7.18;;;4.63;;
46022;SDS011;31756;47.936;16.224;2022-12-29T02:47:02;8.67;;;5.00;;
46022;SDS011;31756;47.936;16.224;2022-12-29T02:49:38;13.67;;;5.00;;
46022;SDS011;31756;47.936;16.224;2022-12-29T02:52:18;8.00;;;4.83;;
46022;SDS011;31756;47.936;16.224;2022-12-29T02:54:48;9.00;;;4.90;;
46022;SDS011;31756;47.936;16.224;2022-12-29T02:57:28;8.13;;;4.67;;
46022;SDS011;31756;47.936;16.224;2022-12-29T02:59:57;10.87;;;5.33;;
46022;SDS011;31756;47.936;16.224;2022-12-29T03:05:25;10.27;;;5.07;;
46022;SDS011;31756;47.936;16.224;2022-12-29T03:08:06;9.83;;;4.37;;
46022;SDS011;31756;47.936;16.224;2022-12-29T03:11:02;6.13;;;4.70;;
46022;SDS011;31756;47.936;16.224;2022-12-29T03:16:32;9.77;;;4.97;;
46022;SDS011;31756;47.936;16.224;2022-12-29T03:19:46;7.33;;;4.70;;
46022;SDS011;31756;47.936;16.224;2022-12-29T03:22:08;7.38;;;4.93;;
46022;SDS011;31756;47.936;16.224;2022-12-29T03:25:03;7.80;;;4.67;;
46022;SDS011;31756;47.936;16.224;2022-12-29T03:27:51;5.80;;;4.23;;
46022;SDS011;31756;47.936;16.224;2022-12-29T03:30:21;6.77;;;4.33;;
46022;SDS011;31756;47.936;16.224;2022-12-29T03:32:52;9.30;;;4.43;;
46022;SDS011;31756;47.936;16.224;2022-12-29T03:35:24;8.25;;;4.85;;
46022;SDS011;31756;47.936;16.224;2022-12-29T03:40:36;7.50;;;4.83;;
46022;SDS011;31756;47.936;16.224;2022-12-29T03:43:06;10.33;;;5.20;;
46022;SDS011;31756;47.936;16.224;2022-12-29T03:45:34;12.03;;;6.03;;
46022;SDS011;31756;47.936;16.224;2022-12-29T03:48:00;12.67;;;5.83;;
46022;SDS011;31756;47.936;16.224;2022-12-29T03:50:26;10.67;;;5.00;;
46022;SDS011;31756;47.936;16.224;2022-12-29T03:52:52;14.03;;;5.03;;
46022;SDS011;31756;47.936;16.224;2022-12-29T03:55:17;9.33;;;4.37;;
46022;SDS011;31756;47.936;16.224;2022-12-29T03:57:43;8.37;;;5.13;;
46022;SDS011;31756;47.936;16.224;2022-12-29T04:00:13;10.93;;;4.73;;
46022;SDS011;31756;47.936;16.224;2022-12-29T04:02:47;10.77;;;5.57;;
46022;SDS011;31756;47.936;16.224;2022-12-29T04:05:18;10.83;;;5.73;;
46022;SDS011;31756;47.936;16.224;2022-12-29T04:07:44;9.63;;;4.30;;
46022;SDS011;31756;47.936;16.224;2022-12-29T04:10:10;11.50;;;5.03;;
46022;SDS011;31756;47.936;16.224;2022-12-29T04:12:36;9.93;;;5.50;;
46022;SDS011;31756;47.936;16.224;2022-12-29T04:15:02;9.57;;;5.07;;
46022;SDS011;31756;47.936;16.224;2022-12-29T04:17:29;9.13;;;5.00;;
46022;SDS011;31756;47.936;16.224;2022-12-29T04:19:55;8.40;;;4.83;;
46022;SDS011;31756;47.936;16.224;2022-12-29T04:22:41;11.03;;;4.77;;
46022;SDS011;31756;47.936;16.224;2022-12-29T04:25:07;9.53;;;5.37;;
46022;SDS011;31756;47.936;16.224;2022-12-29T04:27:33;11.33;;;5.03;;
46022;SDS011;31756;47.936;16.224;2022-12-29T04:30:21;11.67;;;5.47;;
46022;SDS011;31756;47.936;16.224;2022-12-29T04:32:58;13.53;;;6.10;;
46022;SDS011;31756;47.936;16.224;2022-12-29T04:35:24;11.63;;;5.30;;
46022;SDS011;31756;47.936;16.224;2022-12-29T04:37:50;9.67;;;5.03;;
46022;SDS011;31756;47.936;16.224;2022-12-29T04:40:16;8.40;;;4.17;;
46022;SDS011;31756;47.936;16.224;2022-12-29T04:42:41;9.73;;;4.93;;
46022;SDS011;31756;47.936;16.224;2022-12-29T04:45:07;12.13;;;4.67;;
46022;SDS011;31756;47.936;16.224;2022-12-29T04:47:49;11.30;;;4.80;;
46022;SDS011;31756;47.936;16.224;2022-12-29T04:50:40;8.03;;;4.50;;
46022;SDS011;31756;47.936;16.224;2022-12-29T04:53:16;9.27;;;4.90;;
46022;SDS011;31756;47.936;16.224;2022-12-29T04:55:43;9.17;;;4.60;;
46022;SDS011;31756;47.936;16.224;2022-12-29T04:58:09;11.50;;;4.43;;
46022;SDS011;31756;47.936;16.224;2022-12-29T05:00:35;15.33;;;5.00;;
46022;SDS011;31756;47.936;16.224;2022-12-29T05:03:01;9.53;;;4.60;;
46022;SDS011;31756;47.936;16.224;2022-12-29T05:05:27;10.87;;;5.07;;
46022;SDS011;31756;47.936;16.224;2022-12-29T05:07:53;13.73;;;4.83;;
46022;SDS011;31756;47.936;16.224;2022-12-29T05:10:19;10.50;;;5.10;;
46022;SDS011;31756;47.936;16.224;2022-12-29T05:12:46;7.87;;;4.07;;
46022;SDS011;31756;47.936;16.224;2022-12-29T05:15:13;8.43;;;5.60;;
46022;SDS011;31756;47.936;16.224;2022-12-29T05:17:38;12.83;;;5.50;;
46022;SDS011;31756;47.936;16.224;2022-12-29T05:20:06;10.67;;;4.27;;
46022;SDS011;31756;47.936;16.224;2022-12-29T05:22:32;9.67;;;4.50;;
46022;SDS011;31756;47.936;16.224;2022-12-29T05:24:58;12.00;;;5.57;;
46022;SDS011;31756;47.936;16.224;2022-12-29T05:27:25;9.87;;;5.80;;
46022;SDS011;31756;47.936;16.224;2022-12-29T05:29:59;9.73;;;5.23;;
46022;SDS011;31756;47.936;16.224;2022-12-29T05:32:24;9.73;;;4.57;;
46022;SDS011;31756;47.936;16.224;2022-12-29T05:34:51;11.53;;;5.13;;
46022;SDS011;31756;47.936;16.224;2022-12-29T05:37:17;10.07;;;4.17;;
46022;SDS011;31756;47.936;16.224;2022-12-29T05:39:43;7.70;;;5.10;;
46022;SDS011;31756;47.936;16.224;2022-12-29T05:42:08;9.33;;;4.40;;
46022;SDS011;31756;47.936;16.224;2022-12-29T05:45:08;8.83;;;4.60;;
46022;SDS011;31756;47.936;16.224;2022-12-29T05:47:53;8.98;;;2.75;;
46022;SDS011;31756;47.936;16.224;2022-12-29T05:50:30;9.67;;;4.63;;
46022;SDS011;31756;47.936;16.224;2022-12-29T05:53:16;8.23;;;4.57;;
46022;SDS011;31756;47.936;16.224;2022-12-29T05:55:44;10.27;;;5.00;;
46022;SDS011;31756;47.936;16.224;2022-12-29T05:58:11;10.00;;;5.17;;
46022;SDS011;31756;47.936;16.224;2022-12-29T06:00:37;14.37;;;5.77;;
46022;SDS011;31756;47.936;16.224;2022-12-29T06:03:03;12.47;;;6.80;;
46022;SDS011;31756;47.936;16.224;2022-12-29T06:05:29;26.77;;;10.33;;
46022;SDS011;31756;47.936;16.224;2022-12-29T06:07:54;13.80;;;7.30;;
46022;SDS011;31756;47.936;16.224;2022-12-29T06:10:21;9.33;;;5.57;;
46022;SDS011;31756;47.936;16.224;2022-12-29T06:12:54;9.73;;;5.57;;
46022;SDS011;31756;47.936;16.224;2022-12-29T06:15:20;10.60;;;5.23;;
46022;SDS011;31756;47.936;16.224;2022-12-29T06:17:48;12.43;;;6.27;;
46022;SDS011;31756;47.936;16.224;2022-12-29T06:20:13;18.03;;;7.13;;
46022;SDS011;31756;47.936;16.224;2022-12-29T06:22:39;15.47;;;7.43;;
46022;SDS011;31756;47.936;16.224;2022-12-29T06:25:06;19.87;;;7.77;;
46022;SDS011;31756;47.936;16.224;2022-12-29T06:27:33;16.40;;;7.37;;
46022;SDS011;31756;47.936;16.224;2022-12-29T06:29:59;17.67;;;6.73;;
46022;SDS011;31756;47.936;16.224;2022-12-29T06:32:25;13.47;;;7.87;;
46022;SDS011;31756;47.936;16.224;2022-12-29T06:34:53;12.30;;;7.63;;
46022;SDS011;31756;47.936;16.224;2022-12-29T06:37:18;13.00;;;7.27;;
46022;SDS011;31756;47.936;16.224;2022-12-29T06:39:44;13.67;;;6.77;;
46022;SDS011;31756;47.936;16.224;2022-12-29T06:42:12;17.13;;;7.63;;
46022;SDS011;31756;47.936;16.224;2022-12-29T06:45:04;12.80;;;6.20;;
46022;SDS011;31756;47.936;16.224;2022-12-29T06:47:30;23.97;;;10.03;;
46022;SDS011;31756;47.936;16.224;2022-12-29T06:49:55;28.57;;;14.23;;
46022;SDS011;31756;47.936;16.224;2022-12-29T06:52:21;31.50;;;13.03;;
46022;SDS011;31756;47.936;16.224;2022-12-29T06:54:49;34.87;;;14.97;;
46022;SDS011;31756;47.936;16.224;2022-12-29T06:57:15;39.10;;;14.73;;
46022;SDS011;31756;47.936;16.224;2022-12-29T06:59:41;32.57;;;16.43;;
46022;SDS011;31756;47.936;16.224;2022-12-29T07:02:06;22.07;;;10.77;;
46022;SDS011;31756;47.936;16.224;2022-12-29T07:04:32;31.13;;;13.60;;
46022;SDS011;31756;47.936;16.224;2022-12-29T07:06:58;23.47;;;11.10;;
46022;SDS011;31756;47.936;16.224;2022-12-29T07:09:25;21.67;;;11.50;;
46022;SDS011;31756;47.936;16.224;2022-12-29T07:11:51;24.70;;;13.23;;
46022;SDS011;31756;47.936;16.224;2022-12-29T07:14:16;21.57;;;10.23;;
46022;SDS011;31756;47.936;16.224;2022-12-29T07:16:42;19.13;;;11.63;;
46022;SDS011;31756;47.936;16.224;2022-12-29T07:19:07;23.27;;;11.37;;
46022;SDS011;31756;47.936;16.224;2022-12-29T07:21:33;21.20;;;11.47;;
46022;SDS011;31756;47.936;16.224;2022-12-29T07:23:59;24.67;;;13.27;;
46022;SDS011;31756;47.936;16.224;2022-12-29T07:26:24;27.53;;;14.47;;
46022;SDS011;31756;47.936;16.224;2022-12-29T07:28:50;41.97;;;17.00;;
46022;SDS011;31756;47.936;16.224;2022-12-29T07:31:17;70.00;;;17.40;;
46022;SDS011;31756;47.936;16.224;2022-12-29T07:33:44;88.20;;;22.10;;
46022;SDS011;31756;47.936;16.224;2022-12-29T07:36:11;113.37;;;23.40;;
46022;SDS011;31756;47.936;16.224;2022-12-29T07:38:37;119.03;;;24.53;;
46022;SDS011;31756;47.936;16.224;2022-12-29T07:41:03;82.93;;;20.60;;
46022;SDS011;31756;47.936;16.224;2022-12-29T07:43:29;166.30;;;31.17;;
46022;SDS011;31756;47.936;16.224;2022-12-29T07:46:19;181.77;;;29.00;;
46022;SDS011;31756;47.936;16.224;2022-12-29T07:48:44;171.00;;;27.13;;
46022;SDS011;31756;47.936;16.224;2022-12-29T07:51:10;155.43;;;30.07;;
46022;SDS011;31756;47.936;16.224;2022-12-29T07:53:36;238.90;;;31.00;;
46022;SDS011;31756;47.936;16.224;2022-12-29T07:56:02;85.33;;;23.00;;
46022;SDS011;31756;47.936;16.224;2022-12-29T07:58:28;172.97;;;28.33;;
46022;SDS011;31756;47.936;16.224;2022-12-29T08:00:57;171.30;;;27.73;;
46022;SDS011;31756;47.936;16.224;2022-12-29T08:03:23;85.07;;;19.63;;
46022;SDS011;31756;47.936;16.224;2022-12-29T08:05:50;151.63;;;23.13;;
46022;SDS011;31756;47.936;16.224;2022-12-29T08:08:16;180.70;;;25.97;;
46022;SDS011;31756;47.936;16.224;2022-12-29T08:10:42;206.80;;;29.73;;
46022;SDS011;31756;47.936;16.224;2022-12-29T08:13:17;205.23;;;28.33;;
46022;SDS011;31756;47.936;16.224;2022-12-29T08:15:42;175.63;;;28.50;;
46022;SDS011;31756;47.936;16.224;2022-12-29T08:18:08;214.50;;;30.07;;
46022;SDS011;31756;47.936;16.224;2022-12-29T08:20:34;224.07;;;31.03;;
46022;SDS011;31756;47.936;16.224;2022-12-29T08:22:59;140.07;;;28.47;;
46022;SDS011;31756;47.936;16.224;2022-12-29T08:25:25;63.97;;;23.43;;
46022;SDS011;31756;47.936;16.224;2022-12-29T08:27:50;84.10;;;25.40;;
46022;SDS011;31756;47.936;16.224;2022-12-29T08:30:16;114.87;;;27.17;;
46022;SDS011;31756;47.936;16.224;2022-12-29T08:32:42;102.47;;;28.63;;
46022;SDS011;31756;47.936;16.224;2022-12-29T08:35:08;195.10;;;33.00;;
46022;SDS011;31756;47.936;16.224;2022-12-29T08:37:34;143.40;;;31.47;;
46022;SDS011;31756;47.936;16.224;2022-12-29T08:39:59;103.27;;;25.40;;
46022;SDS011;31756;47.936;16.224;2022-12-29T08:42:29;86.13;;;23.03;;
46022;SDS011;31756;47.936;16.224;2022-12-29T08:44:59;178.47;;;27.23;;
46022;SDS011;31756;47.936;16.224;2022-12-29T08:47:25;116.63;;;22.43;;
46022;SDS011;31756;47.936;16.224;2022-12-29T08:49:51;190.70;;;27.07;;
46022;SDS011;31756;47.936;16.224;2022-12-29T08:52:17;170.63;;;25.60;;
46022;SDS011;31756;47.936;16.224;2022-12-29T08:54:43;62.33;;;20.03;;
46022;SDS011;31756;47.936;16.224;2022-12-29T08:57:08;112.60;;;22.33;;
46022;SDS011;31756;47.936;16.224;2022-12-29T08:59:40;59.50;;;19.40;;
46022;SDS011;31756;47.936;16.224;2022-12-29T09:02:12;175.23;;;25.17;;
46022;SDS011;31756;47.936;16.224;2022-12-29T09:04:37;83.90;;;21.07;;
46022;SDS011;31756;47.936;16.224;2022-12-29T09:07:03;47.83;;;18.33;;
46022;SDS011;31756;47.936;16.224;2022-12-29T09:09:28;84.37;;;20.77;;
46022;SDS011;31756;47.936;16.224;2022-12-29T09:11:57;92.37;;;20.07;;
46022;SDS011;31756;47.936;16.224;2022-12-29T09:14:22;60.13;;;17.67;;
46022;SDS011;31756;47.936;16.224;2022-12-29T09:16:50;44.70;;;18.37;;
46022;SDS011;31756;47.936;16.224;2022-12-29T09:19:35;62.17;;;19.27;;
46022;SDS011;31756;47.936;16.224;2022-12-29T09:22:01;86.43;;;18.07;;
46022;SDS011;31756;47.936;16.224;2022-12-29T09:24:27;85.53;;;21.20;;
46022;SDS011;31756;47.936;16.224;2022-12-29T09:26:52;84.03;;;18.63;;
46022;SDS011;31756;47.936;16.224;2022-12-29T09:29:18;132.53;;;20.93;;
46022;SDS011;31756;47.936;16.224;2022-12-29T09:31:43;53.03;;;18.13;;
46022;SDS011;31756;47.936;16.224;2022-12-29T09:34:09;43.47;;;16.40;;
46022;SDS011;31756;47.936;16.224;2022-12-29T09:36:34;118.87;;;21.60;;
46022;SDS011;31756;47.936;16.224;2022-12-29T09:39:00;124.13;;;19.80;;
46022;SDS011;31756;47.936;16.224;2022-12-29T09:41:29;84.20;;;19.80;;
46022;SDS011;31756;47.936;16.224;2022-12-29T09:46:38;58.27;;;17.97;;
46022;SDS011;31756;47.936;16.224;2022-12-29T09:49:16;86.27;;;18.17;;
46022;SDS011;31756;47.936;16.224;2022-12-29T09:51:51;44.63;;;18.30;;
46022;SDS011;31756;47.936;16.224;2022-12-29T09:57:21;32.73;;;14.70;;
46022;SDS011;31756;47.936;16.224;2022-12-29T09:59:51;29.60;;;13.43;;
46022;SDS011;31756;47.936;16.224;2022-12-29T10:02:38;66.03;;;15.97;;
46022;SDS011;31756;47.936;16.224;2022-12-29T10:05:28;37.85;;;16.20;;
46022;SDS011;31756;47.936;16.224;2022-12-29T10:08:05;23.65;;;11.05;;
46022;SDS011;31756;47.936;16.224;2022-12-29T10:10:54;31.40;;;15.00;;
46022;SDS011;31756;47.936;16.224;2022-12-29T10:16:10;30.50;;;14.57;;
46022;SDS011;31756;47.936;16.224;2022-12-29T10:24:24;35.83;;;15.57;;
46022;SDS011;31756;47.936;16.224;2022-12-29T10:26:53;36.87;;;16.17;;
46022;SDS011;31756;47.936;16.224;2022-12-29T10:29:23;36.10;;;15.27;;
46022;SDS011;31756;47.936;16.224;2022-12-29T10:32:06;40.90;;;17.10;;
46022;SDS011;31756;47.936;16.224;2022-12-29T10:34:43;33.60;;;17.70;;
46022;SDS011;31756;47.936;16.224;2022-12-29T10:39:53;26.70;;;16.27;;
46022;SDS011;31756;47.936;16.224;2022-12-29T10:44:56;30.77;;;16.30;;
46022;SDS011;31756;47.936;16.224;2022-12-29T10:47:25;26.87;;;16.70;;
46022;SDS011;31756;47.936;16.224;2022-12-29T10:49:54;33.80;;;16.27;;
46022;SDS011;31756;47.936;16.224;2022-12-29T10:52:20;29.40;;;14.97;;
46022;SDS011;31756;47.936;16.224;2022-12-29T10:54:49;26.87;;;15.43;;
46022;SDS011;31756;47.936;16.224;2022-12-29T10:57:24;29.97;;;15.57;;
46022;SDS011;31756;47.936;16.224;2022-12-29T11:00:19;22.93;;;13.13;;
46022;SDS011;31756;47.936;16.224;2022-12-29T11:05:35;24.53;;;14.83;;
46022;SDS011;31756;47.936;16.224;2022-12-29T11:08:10;27.80;;;16.17;;
46022;SDS011;31756;47.936;16.224;2022-12-29T11:10:43;28.80;;;16.80;;
46022;SDS011;31756;47.936;16.224;2022-12-29T11:13:14;28.07;;;15.23;;
46022;SDS011;31756;47.936;16.224;2022-12-29T11:15:46;23.93;;;14.33;;
46022;SDS011;31756;47.936;16.224;2022-12-29T11:21:00;21.77;;;13.90;;
46022;SDS011;31756;47.936;16.224;2022-12-29T11:23:32;22.73;;;15.23;;
46022;SDS011;31756;47.936;16.224;2022-12-29T11:29:03;21.50;;;13.30;;
46022;SDS011;31756;47.936;16.224;2022-12-29T11:31:42;23.57;;;12.37;;
46022;SDS011;31756;47.936;16.224;2022-12-29T11:36:46;21.97;;;12.97;;
46022;SDS011;31756;47.936;16.224;2022-12-29T11:42:16;28.57;;;13.77;;
46022;SDS011;31756;47.936;16.224;2022-12-29T11:44:45;25.10;;;13.23;;
46022;SDS011;31756;47.936;16.224;2022-12-29T11:47:23;28.80;;;13.43;;
46022;SDS011;31756;47.936;16.224;2022-12-29T11:49:55;27.03;;;13.60;;
46022;SDS011;31756;47.936;16.224;2022-12-29T11:52:25;31.50;;;14.47;;
46022;SDS011;31756;47.936;16.224;2022-12-29T11:54:54;22.43;;;13.23;;
46022;SDS011;31756;47.936;16.224;2022-12-29T11:57:21;35.13;;;16.80;;
46022;SDS011;31756;47.936;16.224;2022-12-29T11:59:55;32.57;;;15.37;;
46022;SDS011;31756;47.936;16.224;2022-12-29T12:05:11;46.33;;;17.27;;
46022;SDS011;31756;47.936;16.224;2022-12-29T12:07:46;32.53;;;16.93;;
46022;SDS011;31756;47.936;16.224;2022-12-29T12:10:21;31.47;;;17.30;;
46022;SDS011;31756;47.936;16.224;2022-12-29T12:15:49;36.40;;;17.38;;
46022;SDS011;31756;47.936;16.224;2022-12-29T12:24:10;32.23;;;16.93;;
46022;SDS011;31756;47.936;16.224;2022-12-29T12:27:43;41.33;;;18.73;;
46022;SDS011;31756;47.936;16.224;2022-12-29T12:32:20;29.10;;;16.33;;
46022;SDS011;31756;47.936;16.224;2022-12-29T12:34:52;30.77;;;17.23;;
46022;SDS011;31756;47.936;16.224;2022-12-29T12:37:31;32.60;;;17.63;;
46022;SDS011;31756;47.936;16.224;2022-12-29T13:04:59;37.63;;;18.60;;
46022;SDS011;31756;47.936;16.224;2022-12-29T13:08:08;38.80;;;18.80;;
46022;SDS011;31756;47.936;16.224;2022-12-29T13:16:10;38.83;;;18.97;;
46022;SDS011;31756;47.936;16.224;2022-12-29T13:19:08;39.67;;;19.13;;
46022;SDS011;31756;47.936;16.224;2022-12-29T13:21:48;39.30;;;19.37;;
46022;SDS011;31756;47.936;16.224;2022-12-29T13:36:24;46.80;;;21.57;;
46022;SDS011;31756;47.936;16.224;2022-12-29T13:39:02;50.60;;;21.80;;
46022;SDS011;31756;47.936;16.224;2022-12-29T13:41:50;48.93;;;21.20;;
46022;SDS011;31756;47.936;16.224;2022-12-29T13:44:27;56.50;;;23.40;;
46022;SDS011;31756;47.936;16.224;2022-12-29T13:46:57;42.20;;;21.47;;
46022;SDS011;31756;47.936;16.224;2022-12-29T13:49:26;61.37;;;20.53;;
46022;SDS011;31756;47.936;16.224;2022-12-29T13:51:54;57.13;;;20.60;;
46022;SDS011;31756;47.936;16.224;2022-12-29T13:54:35;40.60;;;20.93;;
46022;SDS011;31756;47.936;16.224;2022-12-29T14:00:16;42.73;;;21.50;;
46022;SDS011;31756;47.936;16.224;2022-12-29T14:07:57;37.33;;;18.47;;
46022;SDS011;31756;47.936;16.224;2022-12-29T14:13:14;38.13;;;19.15;;
46022;SDS011;31756;47.936;16.224;2022-12-29T14:15:41;43.47;;;18.53;;
46022;SDS011;31756;47.936;16.224;2022-12-29T14:20:35;39.13;;;19.90;;
46022;SDS011;31756;47.936;16.224;2022-12-29T14:23:15;39.20;;;19.73;;
46022;SDS011;31756;47.936;16.224;2022-12-29T14:26:45;44.03;;;18.27;;
46022;SDS011;31756;47.936;16.224;2022-12-29T14:36:35;46.57;;;19.77;;
46022;SDS011;31756;47.936;16.224;2022-12-29T14:39:03;47.17;;;21.03;;
46022;SDS011;31756;47.936;16.224;2022-12-29T14:42:03;39.77;;;21.40;;
46022;SDS011;31756;47.936;16.224;2022-12-29T14:44:49;39.30;;;19.83;;
46022;SDS011;31756;47.936;16.224;2022-12-29T14:47:26;37.70;;;19.07;;
46022;SDS011;31756;47.936;16.224;2022-12-29T14:49:52;36.37;;;18.93;;
46022;SDS011;31756;47.936;16.224;2022-12-29T14:52:21;32.70;;;18.80;;
46022;SDS011;31756;47.936;16.224;2022-12-29T14:54:53;33.53;;;17.97;;
46022;SDS011;31756;47.936;16.224;2022-12-29T14:57:24;35.60;;;18.93;;
46022;SDS011;31756;47.936;16.224;2022-12-29T15:00:07;39.07;;;20.73;;
46022;SDS011;31756;47.936;16.224;2022-12-29T15:02:34;41.67;;;21.80;;
46022;SDS011;31756;47.936;16.224;2022-12-29T15:05:05;39.73;;;20.10;;
46022;SDS011;31756;47.936;16.224;2022-12-29T15:07:45;36.47;;;20.40;;
46022;SDS011;31756;47.936;16.224;2022-12-29T15:10:13;43.17;;;20.20;;
46022;SDS011;31756;47.936;16.224;2022-12-29T15:12:47;36.03;;;21.27;;
46022;SDS011;31756;47.936;16.224;2022-12-29T15:17:48;34.07;;;19.70;;
46022;SDS011;31756;47.936;16.224;2022-12-29T15:20:22;36.10;;;19.23;;
46022;SDS011;31756;47.936;16.224;2022-12-29T15:22:56;45.00;;;21.13;;
46022;SDS011;31756;47.936;16.224;2022-12-29T15:25:27;44.87;;;22.30;;
46022;SDS011;31756;47.936;16.224;2022-12-29T15:27:54;44.00;;;22.93;;
46022;SDS011;31756;47.936;16.224;2022-12-29T15:30:24;42.13;;;21.13;;
46022;SDS011;31756;47.936;16.224;2022-12-29T15:32:50;44.57;;;20.93;;
46022;SDS011;31756;47.936;16.224;2022-12-29T15:35:27;49.97;;;22.47;;
46022;SDS011;31756;47.936;16.224;2022-12-29T15:38:00;45.43;;;20.80;;
46022;SDS011;31756;47.936;16.224;2022-12-29T15:40:37;40.93;;;21.00;;
46022;SDS011;31756;47.936;16.224;2022-12-29T15:45:34;43.53;;;21.37;;
46022;SDS011;31756;47.936;16.224;2022-12-29T15:48:01;40.37;;;21.20;;
46022;SDS011;31756;47.936;16.224;2022-12-29T15:50:30;51.13;;;22.47;;
46022;SDS011;31756;47.936;16.224;2022-12-29T15:52:58;46.27;;;22.00;;
46022;SDS011;31756;47.936;16.224;2022-12-29T15:55:34;53.30;;;26.60;;
46022;SDS011;31756;47.936;16.224;2022-12-29T15:58:03;51.17;;;26.77;;
46022;SDS011;31756;47.936;16.224;2022-12-29T16:00:31;52.93;;;25.93;;
46022;SDS011;31756;47.936;16.224;2022-12-29T16:03:02;57.03;;;28.87;;
46022;SDS011;31756;47.936;16.224;2022-12-29T16:05:36;56.00;;;30.17;;
46022;SDS011;31756;47.936;16.224;2022-12-29T16:08:20;61.85;;;31.95;;
46022;SDS011;31756;47.936;16.224;2022-12-29T16:10:49;52.65;;;28.90;;
46022;SDS011;31756;47.936;16.224;2022-12-29T16:15:47;49.73;;;26.63;;
46022;SDS011;31756;47.936;16.224;2022-12-29T16:18:20;60.33;;;26.47;;
46022;SDS011;31756;47.936;16.224;2022-12-29T16:20:50;52.77;;;27.10;;
46022;SDS011;31756;47.936;16.224;2022-12-29T16:23:22;59.13;;;29.13;;
46022;SDS011;31756;47.936;16.224;2022-12-29T16:25:50;55.57;;;29.63;;
46022;SDS011;31756;47.936;16.224;2022-12-29T16:28:20;58.17;;;27.43;;
46022;SDS011;31756;47.936;16.224;2022-12-29T16:30:58;49.67;;;24.47;;
46022;SDS011;31756;47.936;16.224;2022-12-29T16:33:38;49.53;;;26.23;;
46022;SDS011;31756;47.936;16.224;2022-12-29T16:36:28;48.97;;;24.27;;
46022;SDS011;31756;47.936;16.224;2022-12-29T16:41:53;46.03;;;24.03;;
46022;SDS011;31756;47.936;16.224;2022-12-29T16:44:21;53.13;;;26.83;;
46022;SDS011;31756;47.936;16.224;2022-12-29T16:46:57;50.77;;;26.93;;
46022;SDS011;31756;47.936;16.224;2022-12-29T16:49:35;51.00;;;24.03;;
46022;SDS011;31756;47.936;16.224;2022-12-29T16:52:13;52.73;;;24.27;;
46022;SDS011;31756;47.936;16.224;2022-12-29T16:54:48;47.73;;;26.80;;
46022;SDS011;31756;47.936;16.224;2022-12-29T16:57:21;52.97;;;26.57;;
46022;SDS011;31756;47.936;16.224;2022-12-29T16:59:48;51.73;;;27.07;;
46022;SDS011;31756;47.936;16.224;2022-12-29T17:02:19;66.83;;;32.73;;
46022;SDS011;31756;47.936;16.224;2022-12-29T17:04:47;55.63;;;30.33;;
46022;SDS011;31756;47.936;16.224;2022-12-29T17:07:19;61.50;;;31.43;;
46022;SDS011;31756;47.936;16.224;2022-12-29T17:09:47;54.83;;;29.27;;
46022;SDS011;31756;47.936;16.224;2022-12-29T17:12:26;55.70;;;27.83;;
46022;SDS011;31756;47.936;16.224;2022-12-29T17:17:57;54.37;;;28.10;;
46022;SDS011;31756;47.936;16.224;2022-12-29T17:20:28;59.17;;;29.20;;
46022;SDS011;31756;47.936;16.224;2022-12-29T17:22:56;68.17;;;32.67;;